Time;durP1;ratioP1;P1;durP2;ratioP2;P2;SDS_P1;SDS_P2;PMS_P1;PMS_P2;Temp;Humidity;BMP_temperature;BMP_pressure;BME280_temperature;BME280_humidity;BME280_pressure;Samples;Min_cycle;Max_cycle;Signal;HPM_P1;HPM_P2
2021/11/25 00:01:43;;;;;;;34.80;31.90;;;3.50;86.90;;;;;;5072501;28;20599;-73
2021/11/25 00:04:11;;;;;;;34.65;31.48;;;3.50;86.30;;;;;;5075343;28;20817;-70
2021/11/25 00:06:38;;;;;;;35.50;32.10;;;3.50;85.80;;;;;;5075813;28;20219;-71
2021/11/25 00:09:05;;;;;;;35.60;32.28;;;3.50;85.30;;;;;;5070514;28;20323;-71
2021/11/25 00:11:32;;;;;;;33.45;30.52;;;3.50;86.10;;;;;;5071549;28;20244;-72
2021/11/25 00:13:59;;;;;;;35.20;32.20;;;3.50;84.90;;;;;;5069346;28;20212;-72
2021/11/25 00:16:26;;;;;;;116.82;39.85;;;3.50;84.90;;;;;;5074933;28;20303;-72
2021/11/25 00:18:53;;;;;;;37.88;33.83;;;3.50;86.80;;;;;;5072490;28;20283;-71
2021/11/25 00:21:22;;;;;;;35.03;31.42;;;3.50;93.20;;;;;;5078562;28;20279;-71
2021/11/25 00:23:49;;;;;;;35.33;32.03;;;3.50;91.50;;;;;;5069951;28;20233;-72
2021/11/25 00:26:16;;;;;;;67.63;34.75;;;3.50;89.50;;;;;;5082594;28;20263;-72
2021/11/25 00:28:44;;;;;;;348.63;58.63;;;3.50;88.30;;;;;;5072920;28;20227;-72
2021/11/25 00:31:11;;;;;;;36.30;32.92;;;3.50;89.40;;;;;;5070896;28;20204;-72
2021/11/25 00:33:39;;;;;;;34.55;31.42;;;3.50;88.10;;;;;;5070357;28;20311;-72
2021/11/25 00:36:06;;;;;;;36.10;32.88;;;3.50;87.00;;;;;;5075064;28;20283;-72
2021/11/25 00:38:35;;;;;;;33.90;30.70;;;3.50;88.20;;;;;;5069896;28;20234;-71
2021/11/25 00:41:02;;;;;;;37.33;34.00;;;3.50;87.70;;;;;;5084864;28;20720;-72
2021/11/25 00:43:29;;;;;;;35.58;32.42;;;3.50;86.90;;;;;;5070381;28;20308;-71
2021/11/25 00:45:57;;;;;;;34.78;31.88;;;3.50;86.40;;;;;;5078557;28;20295;-71
2021/11/25 00:48:24;;;;;;;34.90;31.77;;;3.50;85.60;;;;;;5072248;28;20273;-71
2021/11/25 00:50:51;;;;;;;35.50;32.30;;;3.60;84.90;;;;;;5075199;28;20281;-72
2021/11/25 00:53:18;;;;;;;288.55;61.45;;;3.50;85.20;;;;;;5070756;28;20277;-72
2021/11/25 00:55:46;;;;;;;36.10;32.67;;;3.50;88.70;;;;;;5069884;28;20686;-72
2021/11/25 00:58:14;;;;;;;33.63;30.73;;;3.50;86.90;;;;;;5077702;28;20273;-72
2021/11/25 01:00:41;;;;;;;33.92;31.02;;;3.50;86.90;;;;;;5070049;28;20203;-71
2021/11/25 01:03:08;;;;;;;34.95;31.88;;;3.50;85.70;;;;;;5073200;28;20282;-72
2021/11/25 01:05:36;;;;;;;37.50;34.10;;;3.50;84.80;;;;;;5069957;28;20279;-71
2021/11/25 01:08:03;;;;;;;35.47;32.33;;;3.60;84.70;;;;;;5070412;28;20299;-71
2021/11/25 01:10:30;;;;;;;36.15;32.95;;;3.70;86.70;;;;;;5077694;28;20291;-72
2021/11/25 01:12:59;;;;;;;38.22;34.72;;;3.70;86.00;;;;;;5076173;28;20282;-71
2021/11/25 01:15:30;;;;;;;38.15;34.45;;;3.50;85.30;;;;;;5076460;28;20286;-71
2021/11/25 01:17:58;;;;;;;1194.55;171.15;;;3.50;87.00;;;;;;5070485;28;20276;-71
2021/11/25 01:20:25;;;;;;;37.17;33.53;;;3.50;90.10;;;;;;5069684;28;20733;-71
2021/11/25 01:22:52;;;;;;;37.05;33.75;;;3.50;91.10;;;;;;5067552;28;20234;-71
2021/11/25 01:25:19;;;;;;;35.72;32.55;;;3.50;88.70;;;;;;5073856;28;20650;-71
2021/11/25 01:27:47;;;;;;;38.08;34.42;;;3.60;87.80;;;;;;5070470;28;20218;-71
2021/11/25 01:30:16;;;;;;;35.72;32.28;;;3.70;86.90;;;;;;5070102;28;20756;-71
2021/11/25 01:32:43;;;;;;;36.90;33.42;;;3.60;85.00;;;;;;5082801;28;20636;-71
2021/11/25 01:35:11;;;;;;;35.40;32.30;;;3.60;85.20;;;;;;5072424;28;20202;-71
2021/11/25 01:37:39;;;;;;;38.20;34.38;;;3.60;87.30;;;;;;5069195;28;20598;-71
2021/11/25 01:40:08;;;;;;;35.22;32.00;;;3.50;87.40;;;;;;5075590;28;20228;-71
2021/11/25 01:42:35;;;;;;;36.95;33.55;;;3.60;86.80;;;;;;5068967;28;20647;-71
2021/11/25 01:45:03;;;;;;;37.40;34.08;;;3.60;86.00;;;;;;5072880;28;20215;-71
2021/11/25 01:47:31;;;;;;;34.67;31.48;;;3.60;86.10;;;;;;5068168;28;20220;-71
2021/11/25 01:49:58;;;;;;;36.80;33.60;;;3.60;88.40;;;;;;5079945;28;20264;-71
2021/11/25 01:52:25;;;;;;;37.70;34.33;;;3.60;86.30;;;;;;5073874;28;20261;-71
2021/11/25 01:54:52;;;;;;;42.03;34.97;;;3.70;85.40;;;;;;5076593;28;20248;-71
2021/11/25 01:57:20;;;;;;;35.45;32.15;;;3.70;88.60;;;;;;5069563;28;20224;-71
2021/11/25 01:59:47;;;;;;;100.40;38.80;;;3.70;88.10;;;;;;5066978;28;20238;-71
2021/11/25 02:02:14;;;;;;;38.17;34.63;;;3.50;87.40;;;;;;5074514;28;20628;-71
2021/11/25 02:04:43;;;;;;;38.92;35.33;;;3.40;88.20;;;;;;5068073;28;20226;-71
2021/11/25 02:07:10;;;;;;;37.28;33.85;;;3.40;85.70;;;;;;5068852;28;20293;-71
2021/11/25 02:09:37;;;;;;;37.00;33.80;;;3.60;84.80;;;;;;5075326;28;20287;-71
2021/11/25 02:12:04;;;;;;;37.53;34.00;;;3.50;84.30;;;;;;5077497;28;20295;-71
2021/11/25 02:14:31;;;;;;;39.17;35.47;;;3.40;84.50;;;;;;5073415;28;20216;-71
2021/11/25 02:16:58;;;;;;;175.85;44.58;;;3.40;87.20;;;;;;5078359;28;20216;-71
2021/11/25 02:19:27;;;;;;;39.38;34.70;;;3.40;87.60;;;;;;5071100;28;20470;-72
2021/11/25 02:21:56;;;;;;;37.53;34.05;;;3.40;91.80;;;;;;5074882;28;20206;-71
2021/11/25 02:24:25;;;;;;;38.05;34.00;;;3.40;90.10;;;;;;5073451;28;20299;-72
2021/11/25 02:26:51;;;;;;;53.58;37.35;;;3.40;89.80;;;;;;5075342;28;20232;-71
2021/11/25 02:29:18;;;;;;;47.20;34.58;;;3.40;87.60;;;;;;5072106;28;20223;-72
2021/11/25 02:31:45;;;;;;;39.60;35.92;;;3.40;87.70;;;;;;5074209;28;20219;-71
2021/11/25 02:34:12;;;;;;;35.55;32.33;;;3.40;87.00;;;;;;5068318;28;20220;-72
2021/11/25 02:36:39;;;;;;;34.75;31.52;;;3.50;93.30;;;;;;5068107;28;20223;-72
2021/11/25 02:39:08;;;;;;;35.80;32.30;;;3.50;89.60;;;;;;5073648;28;20314;-72
2021/11/25 02:41:35;;;;;;;35.38;32.33;;;3.50;87.70;;;;;;5071934;28;20192;-72
2021/11/25 02:44:02;;;;;;;36.13;32.72;;;3.50;87.00;;;;;;5072851;28;20676;-72
2021/11/25 02:46:29;;;;;;;35.97;32.88;;;3.50;86.00;;;;;;5076474;28;20238;-71
2021/11/25 02:48:58;;;;;;;36.97;33.67;;;3.50;85.50;;;;;;5070985;28;20549;-71
2021/11/25 02:51:27;;;;;;;39.35;35.85;;;3.60;85.10;;;;;;5073503;28;20195;-71
2021/11/25 02:53:55;;;;;;;37.65;34.15;;;3.50;84.60;;;;;;5073157;28;20253;-71
2021/11/25 02:56:26;;;;;;;37.95;34.25;;;3.60;85.50;;;;;;5078023;28;20286;-71
2021/11/25 02:58:54;;;;;;;39.88;36.13;;;3.50;85.30;;;;;;5077426;28;20249;-71
2021/11/25 03:01:29;;;;;;;191.02;48.35;;;3.50;87.10;;;;;;5069734;28;20188;-71
2021/11/25 03:03:57;;;;;;;39.55;35.92;;;3.50;86.90;;;;;;5066485;28;20210;-71
2021/11/25 03:06:24;;;;;;;39.03;35.33;;;3.50;87.80;;;;;;5070439;28;20196;-71
2021/11/25 03:08:51;;;;;;;38.58;34.83;;;3.60;86.50;;;;;;5067944;28;20278;-71
2021/11/25 03:11:20;;;;;;;39.35;35.63;;;3.60;85.50;;;;;;5070066;28;20596;-71
2021/11/25 03:13:50;;;;;;;40.10;36.08;;;3.60;86.00;;;;;;5076522;28;20250;-71
2021/11/25 03:16:19;;;;;;;299.70;61.58;;;3.60;85.50;;;;;;5073286;28;20245;-71
2021/11/25 03:18:46;;;;;;;171.23;44.95;;;3.60;90.90;;;;;;5079519;28;20283;-71
2021/11/25 03:21:15;;;;;;;37.92;34.33;;;3.50;89.50;;;;;;5069097;28;20746;-70
2021/11/25 03:23:43;;;;;;;39.03;35.42;;;3.60;88.20;;;;;;5068763;28;20293;-70
2021/11/25 03:26:11;;;;;;;38.72;35.10;;;3.60;86.40;;;;;;5074423;28;20268;-71
2021/11/25 03:28:42;;;;;;;38.40;34.92;;;3.70;85.80;;;;;;5069655;28;20222;-71
2021/11/25 03:31:11;;;;;;;39.65;35.85;;;3.70;84.90;;;;;;5068081;28;20253;-71
2021/11/25 03:33:38;;;;;;;38.80;35.33;;;3.70;85.10;;;;;;5066601;28;20208;-71
2021/11/25 03:36:07;;;;;;;40.00;36.10;;;3.70;84.90;;;;;;5073642;28;20637;-71
2021/11/25 03:38:34;;;;;;;41.35;37.42;;;3.60;85.70;;;;;;5068765;28;20275;-71
2021/11/25 03:41:02;;;;;;;37.80;34.30;;;3.60;85.40;;;;;;5076595;28;20257;-71
2021/11/25 03:43:30;;;;;;;37.08;33.65;;;3.60;85.30;;;;;;5067146;28;20844;-71
2021/11/25 03:45:57;;;;;;;39.38;35.78;;;3.70;85.20;;;;;;5072118;28;20279;-71
2021/11/25 03:48:29;;;;;;;46.55;35.70;;;3.70;83.90;;;;;;5077442;28;20303;-71
2021/11/25 03:50:56;;;;;;;37.97;34.33;;;3.60;88.10;;;;;;5074063;28;20284;-71
2021/11/25 03:53:23;;;;;;;39.10;35.33;;;3.60;83.80;;;;;;5066833;28;20239;-71
2021/11/25 03:55:51;;;;;;;53.95;36.15;;;3.40;83.80;;;;;;5075654;28;20227;-71
2021/11/25 03:58:18;;;;;;;39.78;36.03;;;3.40;84.40;;;;;;5067632;28;20249;-71
2021/11/25 04:00:47;;;;;;;38.90;35.38;;;3.40;86.30;;;;;;5078194;28;20192;-71
2021/11/25 04:03:14;;;;;;;39.08;35.47;;;3.30;84.00;;;;;;5072253;28;20656;-71
2021/11/25 04:05:42;;;;;;;38.97;35.38;;;3.30;84.00;;;;;;5075205;28;20204;-71
2021/11/25 04:08:09;;;;;;;39.38;35.65;;;3.40;83.50;;;;;;5070819;28;20308;-71
2021/11/25 04:10:37;;;;;;;43.63;39.72;;;3.30;83.60;;;;;;5077678;28;20196;-70
2021/11/25 04:13:04;;;;;;;40.20;36.55;;;3.10;84.00;;;;;;5070834;28;20227;-71
2021/11/25 04:15:31;;;;;;;529.75;87.70;;;3.10;84.70;;;;;;5069749;28;20604;-71
2021/11/25 04:17:58;;;;;;;38.63;34.85;;;3.20;89.90;;;;;;5077280;28;20302;-71
2021/11/25 04:20:25;;;;;;;38.75;35.03;;;3.30;88.60;;;;;;5087895;28;20191;-71
2021/11/25 04:22:53;;;;;;;40.90;37.03;;;3.30;91.10;;;;;;5078103;28;20732;-71
2021/11/25 04:25:20;;;;;;;36.80;33.30;;;3.40;87.20;;;;;;5081178;28;20282;-71
2021/11/25 04:27:47;;;;;;;37.83;34.20;;;3.40;87.00;;;;;;5079379;28;20358;-71
2021/11/25 04:30:26;;;;;;;38.97;35.40;;;3.30;86.70;;;;;;5075020;28;20687;-71
2021/11/25 04:35:38;;;;;;;39.08;35.40;;;3.40;86.40;;;;;;5079149;28;20238;-71
2021/11/25 04:38:10;;;;;;;39.25;35.50;;;3.40;86.00;;;;;;5069669;28;20196;-71
2021/11/25 04:40:39;;;;;;;39.40;35.85;;;3.40;86.50;;;;;;5070668;28;20200;-70
2021/11/25 04:43:07;;;;;;;41.33;37.53;;;3.50;85.90;;;;;;5081321;28;20602;-70
2021/11/25 04:45:35;;;;;;;40.85;37.15;;;3.50;85.20;;;;;;5070014;28;20616;-70
2021/11/25 04:48:03;;;;;;;41.38;37.53;;;3.40;85.10;;;;;;5079178;28;20293;-71
2021/11/25 04:50:30;;;;;;;45.67;37.90;;;3.50;84.90;;;;;;5075377;28;20199;-70
2021/11/25 04:52:57;;;;;;;45.00;40.20;;;3.50;84.60;;;;;;5069756;28;20206;-70
2021/11/25 04:55:26;;;;;;;37.22;33.92;;;3.50;85.20;;;;;;5071540;28;20200;-70
2021/11/25 04:57:53;;;;;;;40.72;36.90;;;3.50;85.20;;;;;;5075403;28;20561;-71
2021/11/25 05:00:21;;;;;;;40.30;36.47;;;3.50;86.10;;;;;;5072951;28;20192;-70
2021/11/25 05:02:48;;;;;;;39.90;36.20;;;3.50;85.20;;;;;;5075544;28;20539;-70
2021/11/25 05:05:15;;;;;;;41.08;36.97;;;3.60;85.20;;;;;;5072589;28;20672;-70
2021/11/25 05:07:42;;;;;;;40.00;36.40;;;3.70;85.10;;;;;;5070802;28;20766;-70
2021/11/25 05:10:11;;;;;;;41.38;37.38;;;3.70;84.80;;;;;;5067736;28;20290;-70
2021/11/25 05:12:39;;;;;;;39.13;35.38;;;3.60;88.20;;;;;;5068525;28;20196;-70
2021/11/25 05:15:08;;;;;;;41.00;36.83;;;3.50;86.60;;;;;;5073937;28;20655;-70
2021/11/25 05:17:35;;;;;;;55.95;38.03;;;3.50;85.80;;;;;;5069603;28;20496;-70
2021/11/25 05:20:03;;;;;;;41.50;37.60;;;3.50;85.90;;;;;;5072698;28;20269;-71
2021/11/25 05:22:30;;;;;;;39.20;35.60;;;3.50;86.60;;;;;;5071624;28;20310;-71
2021/11/25 05:24:57;;;;;;;40.42;36.72;;;3.50;85.40;;;;;;5077153;28;20203;-71
2021/11/25 05:27:24;;;;;;;40.72;36.83;;;3.50;85.20;;;;;;5075624;28;20290;-70
2021/11/25 05:29:52;;;;;;;38.50;34.78;;;3.40;84.40;;;;;;5075541;28;20187;-70
2021/11/25 05:32:19;;;;;;;508.77;89.25;;;3.50;85.10;;;;;;5077001;28;20284;-70
2021/11/25 05:34:47;;;;;;;40.83;36.65;;;3.50;93.50;;;;;;5074825;28;20256;-71
2021/11/25 05:37:14;;;;;;;38.38;34.67;;;3.50;88.90;;;;;;5073626;28;20234;-71
2021/11/25 05:39:41;;;;;;;39.47;35.47;;;3.50;88.50;;;;;;5077231;28;20295;-71
2021/11/25 05:42:09;;;;;;;39.35;35.53;;;3.60;88.50;;;;;;5072476;28;20648;-71
2021/11/25 05:44:36;;;;;;;831.08;115.95;;;3.50;87.70;;;;;;5067493;28;20883;-72
2021/11/25 05:47:06;;;;;;;43.97;39.55;;;3.60;89.90;;;;;;5072640;28;20230;-72
2021/11/25 05:49:33;;;;;;;47.47;38.40;;;3.50;93.30;;;;;;5064794;28;20216;-71
2021/11/25 05:52:00;;;;;;;234.52;53.80;;;3.50;91.00;;;;;;5077561;28;20661;-72
2021/11/25 05:54:27;;;;;;;199.13;49.85;;;3.50;93.10;;;;;;5075175;28;20306;-71
2021/11/25 05:56:55;;;;;;;70.10;42.38;;;3.40;90.70;;;;;;5075516;28;20892;-73
2021/11/25 05:59:22;;;;;;;41.10;37.20;;;3.50;90.60;;;;;;5077030;28;20275;-72
2021/11/25 06:01:49;;;;;;;40.40;36.70;;;3.40;88.70;;;;;;5079104;28;20278;-71
2021/11/25 06:04:18;;;;;;;41.33;37.40;;;3.40;87.80;;;;;;5075375;28;20208;-71
2021/11/25 06:06:45;;;;;;;42.55;38.58;;;3.40;86.60;;;;;;5070348;28;20662;-71
2021/11/25 06:09:11;;;;;;;90.30;41.35;;;3.40;86.30;;;;;;5075972;28;20255;-71
2021/11/25 06:11:39;;;;;;;39.63;35.92;;;3.40;90.00;;;;;;5074898;28;20238;-72
2021/11/25 06:14:06;;;;;;;59.28;40.88;;;3.40;90.60;;;;;;5074450;28;20569;-72
2021/11/25 06:16:33;;;;;;;41.42;37.53;;;3.50;88.10;;;;;;5079364;28;20207;-72
2021/11/25 06:19:00;;;;;;;43.45;39.25;;;3.50;87.00;;;;;;5071491;28;20202;-73
2021/11/25 06:21:28;;;;;;;1989.93;298.45;;;3.60;85.60;;;;;;5072459;28;20508;-74
2021/11/25 06:23:55;;;;;;;162.98;51.17;;;3.40;93.00;;;;;;5074162;28;20303;-71
2021/11/25 06:26:22;;;;;;;45.05;40.40;;;3.30;93.80;;;;;;5077041;28;20235;-71
2021/11/25 06:28:49;;;;;;;307.27;64.78;;;3.40;92.50;;;;;;5068347;28;20310;-71
2021/11/25 06:31:16;;;;;;;107.90;45.83;;;3.30;95.10;;;;;;5069478;28;20227;-71
2021/11/25 06:33:43;;;;;;;45.40;40.67;;;3.30;92.40;;;;;;5076387;28;20211;-71
2021/11/25 06:36:10;;;;;;;39.85;35.90;;;3.30;90.80;;;;;;5079918;28;20764;-72
2021/11/25 06:38:39;;;;;;;42.10;38.20;;;3.40;89.60;;;;;;5077603;28;20843;-72
2021/11/25 06:41:07;;;;;;;41.70;37.67;;;3.40;88.50;;;;;;5075142;28;20228;-72
2021/11/25 06:43:35;;;;;;;45.97;41.88;;;3.30;87.20;;;;;;5079795;28;20461;-72
2021/11/25 06:46:02;;;;;;;37.97;34.47;;;3.50;87.00;;;;;;5071668;28;20195;-72
2021/11/25 06:48:29;;;;;;;39.55;35.60;;;3.50;85.40;;;;;;5068717;28;20354;-71
2021/11/25 06:50:56;;;;;;;40.33;36.03;;;3.40;88.70;;;;;;5078456;28;20203;-72
2021/11/25 06:53:24;;;;;;;38.90;35.10;;;3.40;89.80;;;;;;5070077;28;20298;-72
2021/11/25 06:55:52;;;;;;;39.90;36.35;;;3.40;86.10;;;;;;5078880;28;20199;-72
2021/11/25 06:58:19;;;;;;;41.60;37.58;;;3.30;84.80;;;;;;5078480;28;20323;-72
2021/11/25 07:00:47;;;;;;;40.97;37.03;;;3.30;84.50;;;;;;5068181;28;20250;-72
2021/11/25 07:03:14;;;;;;;40.60;37.00;;;3.30;84.00;;;;;;5066950;28;20224;-72
2021/11/25 07:05:41;;;;;;;40.55;36.78;;;3.10;84.20;;;;;;5067027;28;20286;-71
2021/11/25 07:08:08;;;;;;;40.25;36.38;;;3.10;84.20;;;;;;5069221;28;20302;-69
2021/11/25 07:10:45;;;;;;;86.40;43.05;;;3.10;84.20;;;;;;5074329;28;20278;-70
2021/11/25 07:13:13;;;;;;;39.90;36.03;;;3.10;85.90;;;;;;5078895;28;20259;-70
2021/11/25 07:15:40;;;;;;;43.67;39.55;;;3.10;85.80;;;;;;5078293;28;20220;-69
2021/11/25 07:18:08;;;;;;;40.03;36.20;;;3.10;84.80;;;;;;5067798;28;20565;-68
2021/11/25 07:20:35;;;;;;;42.95;38.95;;;3.10;84.80;;;;;;5085578;28;20197;-71
2021/11/25 07:23:04;;;;;;;39.58;35.97;;;3.10;85.20;;;;;;5081217;28;20306;-71
2021/11/25 07:25:32;;;;;;;44.88;40.38;;;3.10;85.10;;;;;;5069146;28;20283;-72
2021/11/25 07:27:59;;;;;;;39.15;35.50;;;3.10;85.40;;;;;;5081061;28;20284;-71
2021/11/25 07:30:28;;;;;;;41.10;37.33;;;3.20;85.40;;;;;;5076862;28;20285;-71
2021/11/25 07:32:55;;;;;;;39.85;36.15;;;3.40;85.70;;;;;;5073575;28;20240;-71
2021/11/25 07:35:24;;;;;;;39.65;35.92;;;3.50;84.80;;;;;;5073077;28;20566;-72
2021/11/25 07:37:53;;;;;;;108.82;42.53;;;3.50;84.20;;;;;;5078277;28;20203;-72
2021/11/25 07:40:22;;;;;;;40.35;36.45;;;3.50;84.80;;;;;;5083844;28;20282;-72
2021/11/25 07:42:52;;;;;;;40.88;37.05;;;3.60;85.60;;;;;;5076970;28;20928;-72
2021/11/25 07:45:19;;;;;;;40.47;36.88;;;3.70;84.20;;;;;;5082148;28;20657;-72
2021/11/25 07:47:47;;;;;;;41.40;37.50;;;3.80;83.70;;;;;;5079293;28;20628;-71
2021/11/25 07:50:17;;;;;;;1718.53;245.68;;;3.80;83.50;;;;;;5080572;28;20277;-72
2021/11/25 07:52:44;;;;;;;38.78;35.08;;;3.70;88.90;;;;;;5075120;28;20237;-72
2021/11/25 07:55:14;;;;;;;38.40;34.60;;;3.60;89.60;;;;;;5073207;28;20249;-71
2021/11/25 07:57:43;;;;;;;36.85;33.33;;;3.70;87.50;;;;;;5086479;28;20202;-72
2021/11/25 08:00:12;;;;;;;38.15;34.35;;;3.70;86.50;;;;;;5084628;28;20252;-72
2021/11/25 08:02:43;;;;;;;40.42;36.53;;;3.70;86.00;;;;;;5082263;28;20207;-72
2021/11/25 08:05:12;;;;;;;50.72;35.75;;;3.70;85.60;;;;;;5079333;28;21090;-71
2021/11/25 08:07:40;;;;;;;98.10;39.75;;;3.80;85.70;;;;;;5085027;28;20274;-72
2021/11/25 08:10:10;;;;;;;42.60;38.17;;;4.00;85.90;;;;;;5084220;28;20271;-73
2021/11/25 08:12:37;;;;;;;37.90;34.13;;;3.80;86.80;;;;;;5075588;28;20223;-73
2021/11/25 08:15:05;;;;;;;39.95;35.95;;;3.80;87.20;;;;;;5084841;28;20246;-72
2021/11/25 08:17:32;;;;;;;39.38;35.47;;;3.80;85.80;;;;;;5083729;28;20278;-73
2021/11/25 08:19:59;;;;;;;37.85;33.92;;;3.90;85.90;;;;;;5075738;28;20293;-72
2021/11/25 08:22:28;;;;;;;40.72;36.47;;;3.90;84.80;;;;;;5083261;28;20196;-72
2021/11/25 08:24:55;;;;;;;42.20;37.85;;;4.10;84.70;;;;;;5081258;28;20302;-72
2021/11/25 08:27:22;;;;;;;41.00;37.00;;;4.20;84.00;;;;;;5071820;28;20208;-71
2021/11/25 08:29:51;;;;;;;41.25;37.17;;;4.30;83.50;;;;;;5075021;28;20207;-71
2021/11/25 08:32:18;;;;;;;150.57;47.92;;;4.30;83.10;;;;;;5084254;28;20228;-70
2021/11/25 08:34:45;;;;;;;91.65;39.85;;;4.10;85.20;;;;;;5078681;28;20290;-72
2021/11/25 08:37:13;;;;;;;39.40;35.28;;;4.10;91.80;;;;;;5078381;28;20204;-72
2021/11/25 08:39:41;;;;;;;102.15;43.47;;;4.10;89.80;;;;;;5072550;28;20659;-73
2021/11/25 08:42:09;;;;;;;38.90;35.10;;;4.10;90.10;;;;;;5074820;28;20302;-72
2021/11/25 08:44:37;;;;;;;41.95;36.95;;;4.20;89.70;;;;;;5075161;28;20250;-70
2021/11/25 08:47:05;;;;;;;41.53;37.28;;;4.20;87.60;;;;;;5073609;28;20203;-70
2021/11/25 08:49:32;;;;;;;42.47;38.20;;;4.30;86.40;;;;;;5074034;28;20331;-70
2021/11/25 08:51:59;;;;;;;42.75;38.65;;;4.40;83.70;;;;;;5076290;28;20286;-70
2021/11/25 08:54:27;;;;;;;41.42;37.25;;;4.40;84.50;;;;;;5069465;28;20247;-69
2021/11/25 08:56:55;;;;;;;41.92;37.63;;;4.30;85.30;;;;;;5081987;28;20288;-69
2021/11/25 08:59:22;;;;;;;42.55;38.22;;;4.30;87.20;;;;;;5080244;28;20275;-70
2021/11/25 09:01:50;;;;;;;85.97;40.88;;;4.30;84.80;;;;;;5070031;28;20295;-70
2021/11/25 09:04:17;;;;;;;41.25;37.30;;;4.40;83.00;;;;;;5073158;28;20539;-70
2021/11/25 09:06:44;;;;;;;43.03;38.83;;;4.30;81.90;;;;;;5083993;28;20206;-70
2021/11/25 09:09:12;;;;;;;42.15;37.95;;;4.10;82.30;;;;;;5069926;28;20244;-70
2021/11/25 09:11:39;;;;;;;45.22;40.95;;;4.10;82.60;;;;;;5074664;28;20192;-70
2021/11/25 09:14:07;;;;;;;44.22;39.92;;;4.10;82.70;;;;;;5068997;28;20212;-69
2021/11/25 09:16:34;;;;;;;44.55;40.10;;;4.10;83.40;;;;;;5082401;28;20780;-70
2021/11/25 09:19:02;;;;;;;41.25;37.05;;;4.10;82.40;;;;;;5068873;28;20192;-70
2021/11/25 09:21:30;;;;;;;42.33;37.90;;;4.10;84.80;;;;;;5068843;28;20742;-69
2021/11/25 09:23:58;;;;;;;42.30;38.10;;;4.10;84.70;;;;;;5069219;28;20582;-70
2021/11/25 09:26:26;;;;;;;59.55;40.83;;;4.20;84.60;;;;;;5068669;28;20231;-70
2021/11/25 09:28:57;;;;;;;44.03;39.33;;;4.20;86.20;;;;;;5068776;28;20306;-70
2021/11/25 09:31:26;;;;;;;39.70;35.80;;;4.40;83.70;;;;;;5069541;28;20257;-69
2021/11/25 09:33:53;;;;;;;44.47;39.92;;;4.30;90.40;;;;;;5068866;28;20299;-70
2021/11/25 09:36:20;;;;;;;41.92;37.83;;;4.30;86.80;;;;;;5071741;28;20200;-70
2021/11/25 09:38:47;;;;;;;42.15;38.13;;;4.30;85.00;;;;;;5068474;28;20246;-70
2021/11/25 09:41:15;;;;;;;40.50;36.53;;;4.50;83.90;;;;;;5069900;28;20200;-70
2021/11/25 09:43:42;;;;;;;138.60;50.70;;;4.40;82.90;;;;;;5065862;28;20234;-70
2021/11/25 09:46:10;;;;;;;42.35;38.05;;;4.60;83.20;;;;;;5068163;28;20302;-70
2021/11/25 09:48:39;;;;;;;41.45;37.55;;;4.60;84.40;;;;;;5073434;28;20192;-70
2021/11/25 09:51:08;;;;;;;42.28;38.33;;;4.70;80.40;;;;;;5075218;28;20731;-70
2021/11/25 09:53:36;;;;;;;45.55;41.25;;;4.70;82.90;;;;;;5072206;28;20664;-70
2021/11/25 09:56:06;;;;;;;42.53;38.58;;;4.40;79.40;;;;;;5075261;28;20200;-70
2021/11/25 09:58:34;;;;;;;43.10;38.83;;;4.10;80.50;;;;;;5068430;28;20932;-70
2021/11/25 10:01:05;;;;;;;41.47;37.72;;;3.80;81.50;;;;;;5070805;28;20286;-70
2021/11/25 10:03:32;;;;;;;44.80;40.53;;;3.70;82.30;;;;;;5069459;28;20247;-70
2021/11/25 10:06:01;;;;;;;42.58;38.67;;;3.90;82.00;;;;;;5089744;28;20295;-70
2021/11/25 10:08:31;;;;;;;42.40;38.50;;;3.70;81.10;;;;;;5072688;28;20235;-70
2021/11/25 10:11:05;;;;;;;43.08;39.15;;;3.70;82.00;;;;;;5069917;28;20266;-70
2021/11/25 10:13:39;;;;;;;44.67;40.40;;;3.90;81.70;;;;;;5067542;28;20218;-70
2021/11/25 10:16:09;;;;;;;44.17;39.83;;;4.00;81.10;;;;;;5080109;28;20259;-70
2021/11/25 10:18:46;;;;;;;44.00;39.65;;;4.10;81.40;;;;;;5068619;28;20191;-70
2021/11/25 10:21:15;;;;;;;41.95;37.95;;;4.30;79.50;;;;;;5068867;28;20809;-70
2021/11/25 10:23:46;;;;;;;42.20;38.10;;;4.00;79.20;;;;;;5068948;28;20262;-70
2021/11/25 10:26:17;;;;;;;42.75;38.95;;;3.80;80.40;;;;;;5074937;28;20293;-70
2021/11/25 10:28:47;;;;;;;41.10;37.40;;;3.80;80.40;;;;;;5072908;28;20649;-70
2021/11/25 10:31:19;;;;;;;42.35;38.00;;;3.70;80.80;;;;;;5087369;28;20203;-70
2021/11/25 10:33:52;;;;;;;41.85;37.70;;;3.70;80.90;;;;;;5074991;28;20308;-70
2021/11/25 10:36:40;;;;;;;42.00;38.20;;;3.80;80.20;;;;;;5078672;28;20203;-70
2021/11/25 10:41:58;;;;;;;42.55;38.65;;;3.70;80.50;;;;;;5056248;28;20325;-70
2021/11/25 10:44:27;;;;;;;41.72;37.55;;;3.80;79.60;;;;;;5066956;28;20306;-70
2021/11/25 10:46:59;;;;;;;43.17;39.28;;;3.80;80.00;;;;;;5074816;28;20242;-70
2021/11/25 10:49:43;;;;;;;43.03;38.90;;;4.00;82.40;;;;;;5079761;28;20219;-70
2021/11/25 10:52:18;;;;;;;41.17;37.20;;;4.20;80.20;;;;;;5069005;28;20729;-70
2021/11/25 10:54:47;;;;;;;40.78;37.08;;;4.40;78.60;;;;;;5067719;28;20254;-70
2021/11/25 10:57:16;;;;;;;40.83;37.30;;;4.60;78.00;;;;;;5069741;28;20210;-70
2021/11/25 10:59:45;;;;;;;42.53;38.50;;;4.70;77.90;;;;;;5071767;28;20196;-69
2021/11/25 11:02:37;;;;;;;43.92;39.92;;;4.70;78.00;;;;;;5074925;28;20287;-74
2021/11/25 11:05:10;;;;;;;43.33;39.03;;;4.80;78.60;;;;;;5066416;28;20502;-72
2021/11/25 11:07:43;;;;;;;42.40;38.53;;;4.90;78.00;;;;;;5074015;28;20779;-71
2021/11/25 11:10:23;;;;;;;41.38;37.65;;;4.80;76.80;;;;;;5066022;28;20219;-71
2021/11/25 11:12:59;;;;;;;40.17;36.65;;;4.70;76.10;;;;;;5073033;28;20275;-71
2021/11/25 11:15:29;;;;;;;43.38;39.50;;;4.60;76.70;;;;;;5074048;28;20202;-71
2021/11/25 11:20:58;;;;;;;41.55;38.05;;;4.60;76.50;;;;;;5030266;28;20185;-71
2021/11/25 11:23:26;;;;;;;42.20;38.33;;;4.60;76.70;;;;;;5028474;28;20807;-70
2021/11/25 11:25:54;;;;;;;40.80;36.92;;;4.80;76.90;;;;;;5064269;28;20198;-70
2021/11/25 11:28:22;;;;;;;42.33;38.38;;;5.00;76.20;;;;;;5071912;28;20196;-70
2021/11/25 11:30:49;;;;;;;42.03;37.83;;;5.10;74.90;;;;;;5080980;28;20243;-71
2021/11/25 11:33:17;;;;;;;41.35;37.28;;;5.00;86.20;;;;;;5070542;28;20220;-71
2021/11/25 11:35:44;;;;;;;38.53;34.97;;;4.90;81.50;;;;;;5089623;28;20286;-70
2021/11/25 11:38:13;;;;;;;40.67;36.92;;;5.10;77.80;;;;;;5070617;28;20298;-71
2021/11/25 11:40:43;;;;;;;40.67;36.90;;;5.10;77.40;;;;;;5083807;28;20279;-71
2021/11/25 11:43:11;;;;;;;41.30;37.58;;;5.20;75.90;;;;;;5071283;28;20224;-71
2021/11/25 11:45:39;;;;;;;42.40;38.30;;;5.20;74.90;;;;;;5072002;28;20719;-71
2021/11/25 11:48:11;;;;;;;43.05;38.90;;;5.20;75.00;;;;;;5073312;28;20245;-72
2021/11/25 11:50:41;;;;;;;43.47;39.50;;;5.30;74.40;;;;;;5077029;28;20576;-72
2021/11/25 11:53:09;;;;;;;41.95;38.22;;;5.20;74.70;;;;;;5075627;28;20247;-72
2021/11/25 11:55:39;;;;;;;43.67;39.97;;;5.20;74.40;;;;;;5070740;28;20318;-72
2021/11/25 11:58:27;;;;;;;41.70;38.10;;;5.00;74.40;;;;;;5071386;28;20730;-71
2021/11/25 12:00:56;;;;;;;41.92;38.20;;;4.60;75.70;;;;;;5071195;28;20216;-71
2021/11/25 12:03:31;;;;;;;43.72;39.95;;;4.50;76.70;;;;;;5078815;28;20279;-72
2021/11/25 12:05:59;;;;;;;43.05;39.05;;;4.80;77.00;;;;;;5080011;28;20195;-70
2021/11/25 12:08:56;;;;;;;42.67;38.65;;;5.00;76.00;;;;;;5073681;28;20294;-71
2021/11/25 12:11:23;;;;;;;42.90;39.20;;;5.20;75.30;;;;;;5073547;28;20248;-71
2021/11/25 12:14:06;;;;;;;44.35;40.65;;;5.10;74.70;;;;;;5074225;28;20571;-72
2021/11/25 12:16:37;;;;;;;44.58;40.33;;;4.70;76.10;;;;;;5082710;28;20278;-72
2021/11/25 12:19:08;;;;;;;43.83;39.58;;;4.90;76.10;;;;;;5068106;28;20601;-72
2021/11/25 12:21:42;;;;;;;42.92;39.35;;;4.90;76.30;;;;;;5070588;28;20196;-72
2021/11/25 12:24:12;;;;;;;44.55;40.28;;;4.90;76.00;;;;;;5069172;28;20979;-71
2021/11/25 12:27:18;;;;;;;43.67;39.47;;;4.60;77.30;;;;;;5070061;28;20302;-71
2021/11/25 12:29:54;;;;;;;44.55;40.30;;;4.90;77.20;;;;;;5012464;28;20217;-70
2021/11/25 12:32:28;;;;;;;45.88;41.25;;;5.10;76.30;;;;;;5010073;28;20202;-69
2021/11/25 12:34:57;;;;;;;47.28;42.67;;;5.00;76.60;;;;;;5051928;28;20224;-69
2021/11/25 12:37:55;;;;;;;45.33;41.13;;;4.90;76.10;;;;;;5071552;28;20283;-70
2021/11/25 12:40:57;;;;;;;41.70;37.90;;;4.90;76.00;;;;;;5077756;28;20206;-70
2021/11/25 12:43:26;;;;;;;45.15;41.08;;;4.60;76.60;;;;;;5029017;28;20646;-70
2021/11/25 12:45:56;;;;;;;42.55;38.45;;;4.60;76.70;;;;;;5066811;28;20736;-70
2021/11/25 12:48:29;;;;;;;44.38;40.38;;;4.60;76.10;;;;;;5068978;28;20645;-70
2021/11/25 12:51:04;;;;;;;43.88;40.08;;;4.40;77.00;;;;;;5071661;28;20302;-72
2021/11/25 12:53:34;;;;;;;44.90;40.67;;;4.50;78.40;;;;;;5081360;28;20222;-71